Edinburgh Airport, United Kingdom

5:34 AM BST on May 26, 2015 (GMT +0100)
Edinburgh Airport | | Change Station
CLOSE
Current Station
Airport
Location: Edinburgh Airport,
Elevation: 135 ft
Nearby Weather Stations

Elev 135 ft 55.95 °N, 3.35 °W | Updated 14 minutes ago

Mostly Cloudy
Mostly Cloudy
41 °F
Feels Like 38 °F
N
5
Wind Variable Wind from WSW

Today
High -- | Low -- °F
--% Chance of Precip.
Yesterday
High -- | Low -- °F
Precip. -- in
4:43 AM 9:38 PM
First Quarter, 54% visible
Pressure 30.15 in
Visibility 6.2 miles
Clouds Mostly Cloudy 3700 ft
Windchill 38 °F
Dew Point 39 °F
Humidity 93%
Rainfall 0.00 in
Snow Depth Not available.
UV 0 out of 12
Pollen Not available.
Air Quality Not available.
Flu Activity Not available.
METAR EGPH 260420Z 24004KT 9999 BKN037 05/04 Q1021

More Conditions Fewer Conditions

Pressure 30.15 in
Visibility 6.2 miles
Clouds Mostly Cloudy 3700 ft
Windchill 38 °F
Dew Point 39 °F
Humidity 93%
Rainfall 0.00 in
Snow Depth Not available.
UV 0 out of 12
Pollen Not available.
Air Quality Not available.
Flu Activity Not available.
METAR EGPH 260420Z 24004KT 9999 BKN037 05/04 Q1021

More Conditions Fewer Conditions

10-Day Weather Forecast

Almanac

Astronomy

May. 26, 2015 Rise Set
Actual Time
Civil Twilight
Nautical Twilight
Astronomical Twilight
Moon
Length of Visible Light
Length of Day
Tomorrow will be .
, % of the Moon is Illuminated

Today's Extremes

Country Highs Country Lows

Community

WunderPhotos

Upload Photos

1,824,278 photos uploaded!

WunderBlogs® & News

Nearby

Air Quality

  Air Quality AQ Index Pollutant
Not available.

Snow Depth

Station Depth Elevation

Earthquake Activity

City Distance Mag. Time & Date
Minimum magnitude displayed is 2.5.

Coastal Water Temperatures

Place Temperature

Stations

Nearby Weather Stations

Station Location Temp. Windchill Dew Point Humidity Wind Precip. Elev Updated Type